Terminal Aerodrome Forecast
Issued by NWS

Home | Current Version | Previous Version | Text Only | Print | Product List | Glossary On
Versions: 1 2 3 4 5 6 7 8 9 10 11 12 13 14 15 16 17 18 19 20 21 22 23 24 25 26
000
FTUS41 KBUF 211136
TAFJHW
TAF
KJHW 211136Z 2112/2212 22009KT P6SM BKN050 WS020/22045KT
     FM211300 25009KT 6SM -RA OVC030
     FM211500 29010KT 6SM -RA OVC007
     FM212000 34009KT P6SM OVC007
     FM212300 35009KT P6SM OVC070
     FM221100 04006KT P6SM OVC050
      AMD LTD TO CLD VIS AND WIND=

USA.gov is the U.S. government's official web portal to all federal, state and local government web resources and services.